Huvudsida
METAR-TAF:

METAR-TAF

Flygplatser :

Herat, Afghanistan

latitud: 34-13N, longitud: 062-13E, höjd: 964 m

Aktuellt väderrapport

Denna rapport gjordes för 2 timmar och 19 minuter sedan, klockan 17:30 UTC
Vind 3 kt varierande vindriktning
Temperatur 3°C
Fuktighet 93%
Tryck 1020 hPa
Sikt 10 km eller mer
Inga moln under 1 500 m eller inga cumulonimbus

METAR: OAHR 281730Z VRB03KT CAVOK 03/02 Q1020 RMK CLOSED A3013 BLU

Tid: 00:19 (19:49 UTC)

Väderprognos

Denna rapport gjordes för 2 timmar och 49 minuter sedan, klockan 17:00 UTC
Prognos gäller från 28 kl. 18 UTC till 29 kl. 18 UTC
Vind 3 kt varierande vindriktning
Sikt 10 km eller mer
Inga moln under 1 500 m eller inga cumulonimbus
Sannolikhet 30% :
Temporärt
från 29 kl. 01 UTC till 29 kl. 03 UTC
Sikt: 5000 m
fuktdis

TAF: OAHR 281700Z 2818/2918 VRB03KT CAVOK PROB30 TEMPO 2901/2903 5000 BR

Aktuella väderrapporter och prognoser från 4000 flygplatser (METAR- och TAF-rapporter).

De tillgängliga stationerna syns som gula och röda prickar på kartan.

För musen över prickarna för att se namnen på stationerna.

Klicka sedan för att få väderrapporter och prognoser.

För att ändra kartan: Klicka på de gröna knapparna med ett svart kors på för att zooma in; den gröna knappen med ett streck på för att zooma ut; eller på de gröna pilarna för angränsande kartor.


METAR-TAF: